createdAt,value
2019-04-07T00:02:26.323Z,13.93
2019-04-07T00:04:55.930Z,14.60
2019-04-07T00:07:25.460Z,14.93
2019-04-07T00:09:55.850Z,14.17
2019-04-07T00:12:45.201Z,16.20
2019-04-07T00:15:15.506Z,15.60
2019-04-07T00:17:47.621Z,14.43
2019-04-07T00:20:17.559Z,14.97
2019-04-07T00:22:47.090Z,14.57
2019-04-07T00:25:16.757Z,14.37
2019-04-07T00:27:46.647Z,14.50
2019-04-07T00:30:16.954Z,16.03
2019-04-07T00:32:46.751Z,14.50
2019-04-07T00:35:26.579Z,15.50
2019-04-07T00:37:49.215Z,14.10
2019-04-07T00:40:18.943Z,13.17
2019-04-07T00:42:48.989Z,14.03
2019-04-07T00:45:20.594Z,14.67
2019-04-07T00:47:50.478Z,14.43
2019-04-07T00:50:22.015Z,14.30
2019-04-07T00:52:52.523Z,13.67
2019-04-07T00:55:23.141Z,14.57
2019-04-07T00:57:52.976Z,14.50
2019-04-07T01:00:24.467Z,14.13
2019-04-07T01:02:54.127Z,13.70
2019-04-07T01:05:34.221Z,14.00
2019-04-07T01:07:55.267Z,14.33
2019-04-07T01:10:24.741Z,14.83
2019-04-07T01:12:54.245Z,13.10
2019-04-07T01:15:24.100Z,13.90
2019-04-07T01:17:53.705Z,14.70
2019-04-07T01:20:24.265Z,14.03
2019-04-07T01:22:53.866Z,13.97
2019-04-07T01:25:23.483Z,14.27
2019-04-07T01:27:53.614Z,13.53
2019-04-07T01:30:23.065Z,13.60
2019-04-07T01:32:53.178Z,12.83
2019-04-07T01:35:22.833Z,14.43
2019-04-07T01:37:52.302Z,14.10
2019-04-07T01:40:21.603Z,13.10
2019-04-07T01:42:53.011Z,14.00
2019-04-07T01:45:37.935Z,13.93
2019-04-07T01:48:09.025Z,14.53
2019-04-07T01:50:40.169Z,20.40
2019-04-07T01:53:11.309Z,19.47
2019-04-07T01:55:42.492Z,17.33
2019-04-07T01:58:15.193Z,18.33
2019-04-07T02:00:46.578Z,16.63
2019-04-07T02:03:18.722Z,16.03
2019-04-07T02:05:58.632Z,15.00
2019-04-07T02:08:23.227Z,14.13
2019-04-07T02:10:55.068Z,13.20
2019-04-07T02:13:26.444Z,15.30
2019-04-07T02:18:45.444Z,14.17
2019-04-07T02:21:17.249Z,14.63
2019-04-07T02:23:49.347Z,15.13
2019-04-07T02:26:21.440Z,13.00
2019-04-07T02:28:52.670Z,13.87
2019-04-07T02:31:23.757Z,14.73
2019-04-07T02:33:57.475Z,13.83
2019-04-07T02:36:31.278Z,14.30
2019-04-07T02:39:02.698Z,16.10
2019-04-07T02:41:34.539Z,15.37
2019-04-07T02:44:07.611Z,16.67
2019-04-07T02:46:58.843Z,16.80
2019-04-07T02:49:30.286Z,15.83
2019-04-07T02:52:02.266Z,16.17
2019-04-07T02:54:34.582Z,15.43
2019-04-07T02:57:06.428Z,17.40
2019-04-07T02:59:41.020Z,16.27
2019-04-07T03:02:10.777Z,15.30
2019-04-07T03:04:41.942Z,15.40
2019-04-07T03:07:32.611Z,15.17
2019-04-07T03:10:04.392Z,13.90
2019-04-07T03:12:37.222Z,15.17
2019-04-07T03:15:09.175Z,15.20
2019-04-07T03:17:41.521Z,15.33
2019-04-07T03:20:13.275Z,14.50
2019-04-07T03:22:44.416Z,14.60
2019-04-07T03:25:15.684Z,13.83
2019-04-07T03:30:37.488Z,13.90
2019-04-07T03:33:12.605Z,13.60
2019-04-07T03:35:40.982Z,15.10
2019-04-07T03:38:12.671Z,15.67
2019-04-07T03:40:44.231Z,15.00
2019-04-07T03:43:15.564Z,14.23
2019-04-07T03:45:48.579Z,16.53
2019-04-07T03:48:19.718Z,15.83
2019-04-07T03:50:50.948Z,17.00
2019-04-07T03:53:22.622Z,17.00
2019-04-07T03:55:58.089Z,16.87
2019-04-07T03:58:29.887Z,17.40
2019-04-07T04:01:05.332Z,16.67
2019-04-07T04:03:37.361Z,16.40
2019-04-07T04:06:09.139Z,15.40
2019-04-07T04:08:41.629Z,15.67
2019-04-07T04:11:14.121Z,16.50
2019-04-07T04:13:45.749Z,16.57
2019-04-07T04:16:18.012Z,15.90
2019-04-07T04:18:48.280Z,15.87
2019-04-07T04:21:17.869Z,14.47
2019-04-07T04:23:47.300Z,15.43
2019-04-07T04:26:17.619Z,14.73
2019-04-07T04:28:47.614Z,15.47
2019-04-07T04:31:17.994Z,15.10
2019-04-07T04:33:48.481Z,15.20
2019-04-07T04:36:18.138Z,15.43
2019-04-07T04:38:48.036Z,14.97
2019-04-07T04:41:17.591Z,14.87
2019-04-07T04:43:47.268Z,15.67
2019-04-07T04:46:18.629Z,15.37
2019-04-07T04:48:49.064Z,16.67
2019-04-07T04:51:19.755Z,15.40
2019-04-07T04:53:50.284Z,17.73
2019-04-07T04:56:20.046Z,16.77
2019-04-07T04:58:50.659Z,15.27
2019-04-07T05:01:20.584Z,15.40
2019-04-07T05:03:50.689Z,15.00
2019-04-07T05:06:21.009Z,15.20
2019-04-07T05:09:09.818Z,16.07
2019-04-07T05:11:39.293Z,14.30
2019-04-07T05:14:08.956Z,15.60
2019-04-07T05:16:38.835Z,17.40
2019-04-07T05:19:08.766Z,15.43
2019-04-07T05:21:38.381Z,15.67
2019-04-07T05:24:07.856Z,15.30
2019-04-07T05:26:37.776Z,15.90
2019-04-07T05:29:07.247Z,15.70
2019-04-07T05:31:37.050Z,14.07
2019-04-07T05:34:06.660Z,13.80
2019-04-07T05:36:36.909Z,14.13
2019-04-07T05:39:08.720Z,15.50
2019-04-07T05:41:38.502Z,15.10
2019-04-07T05:44:08.059Z,13.70
2019-04-07T05:46:42.327Z,16.17
2019-04-07T05:49:12.296Z,13.93
2019-04-07T05:51:43.385Z,15.87
2019-04-07T05:54:16.376Z,14.03
2019-04-07T05:56:44.744Z,14.43
2019-04-07T05:59:14.725Z,14.63
2019-04-07T06:01:47.637Z,16.07
2019-04-07T06:04:19.155Z,15.40
2019-04-07T06:06:52.688Z,15.20
2019-04-07T06:09:20.783Z,14.70
2019-04-07T06:11:50.412Z,14.93
2019-04-07T06:14:20.505Z,14.87
2019-04-07T06:16:54.242Z,14.90
2019-04-07T06:19:21.572Z,15.63
2019-04-07T06:21:51.670Z,14.90
2019-04-07T06:24:22.445Z,15.00
2019-04-07T06:27:13.828Z,14.87
2019-04-07T06:29:42.628Z,15.90
2019-04-07T06:32:35.191Z,15.97
2019-04-07T06:35:02.762Z,16.60
2019-04-07T06:37:33.058Z,16.57
2019-04-07T06:40:22.991Z,15.90
2019-04-07T06:42:53.361Z,15.70
2019-04-07T06:45:24.596Z,15.00
2019-04-07T06:47:56.286Z,15.50
2019-04-07T06:50:27.945Z,15.43
2019-04-07T06:52:59.600Z,15.13
2019-04-07T06:55:33.029Z,16.20
2019-04-07T06:58:06.074Z,14.97
2019-04-07T07:00:37.457Z,15.40
2019-04-07T07:03:08.624Z,16.63
2019-04-07T07:05:43.021Z,16.33
2019-04-07T07:08:12.992Z,14.57
2019-04-07T07:13:34.261Z,14.40
2019-04-07T07:16:07.921Z,15.07
2019-04-07T07:18:36.431Z,12.63
2019-04-07T07:21:07.544Z,12.13
2019-04-07T07:23:38.715Z,12.10
2019-04-07T07:26:09.070Z,11.57
2019-04-07T07:28:42.948Z,11.10
2019-04-07T07:31:10.550Z,10.90
2019-04-07T07:33:42.435Z,10.60
2019-04-07T07:36:11.302Z,10.87
2019-04-07T07:39:02.133Z,10.70
2019-04-07T07:41:31.332Z,10.90
2019-04-07T07:44:03.608Z,10.47
2019-04-07T07:46:32.331Z,10.30
2019-04-07T07:49:02.242Z,10.70
2019-04-07T07:51:31.838Z,10.63
2019-04-07T07:54:02.138Z,10.57
2019-04-07T07:56:51.651Z,10.77
2019-04-07T07:59:22.547Z,10.03
2019-04-07T08:01:52.541Z,10.97
2019-04-07T08:04:24.993Z,10.40
2019-04-07T08:06:54.396Z,10.27
2019-04-07T08:09:25.978Z,10.20
2019-04-07T08:11:55.376Z,10.10
2019-04-07T08:14:25.116Z,9.37
2019-04-07T08:17:14.759Z,9.60
2019-04-07T08:19:45.363Z,9.57
2019-04-07T08:22:26.620Z,9.35
2019-04-07T08:24:49.606Z,9.80
2019-04-07T08:27:18.014Z,9.90
2019-04-07T08:29:47.503Z,9.33
2019-04-07T08:32:18.672Z,9.50
2019-04-07T08:34:48.418Z,9.70
2019-04-07T08:37:19.016Z,10.43
2019-04-07T08:39:48.653Z,10.07
2019-04-07T08:42:19.515Z,10.07
2019-04-07T08:44:49.795Z,10.47
2019-04-07T08:47:39.176Z,9.70
2019-04-07T08:50:22.658Z,9.50
2019-04-07T08:52:52.292Z,9.90
2019-04-07T08:55:22.509Z,10.38
2019-04-07T08:57:52.144Z,10.45
2019-04-07T09:00:23.794Z,9.98
2019-04-07T09:03:15.673Z,9.85
2019-04-07T09:05:44.460Z,9.70
2019-04-07T09:08:14.892Z,9.98
2019-04-07T09:10:49.205Z,10.15
2019-04-07T09:13:37.333Z,10.03
2019-04-07T09:16:11.519Z,10.30
2019-04-07T09:18:51.629Z,9.28
2019-04-07T09:21:40.022Z,10.13
2019-04-07T09:24:29.822Z,9.40
2019-04-07T09:26:59.077Z,9.78
2019-04-07T09:29:31.271Z,9.98
2019-04-07T09:32:02.623Z,9.00
2019-04-07T09:34:34.493Z,8.70
2019-04-07T09:37:05.811Z,9.38
2019-04-07T09:39:54.035Z,10.08
2019-04-07T09:42:09.897Z,10.43
2019-04-07T09:44:40.977Z,9.53
2019-04-07T09:47:15.794Z,9.43
2019-04-07T09:49:48.172Z,9.60
2019-04-07T09:52:18.771Z,9.23
2019-04-07T09:54:52.990Z,9.70
2019-04-07T09:57:42.060Z,9.38
2019-04-07T10:00:14.503Z,10.15
2019-04-07T10:02:45.961Z,9.73
2019-04-07T10:05:17.659Z,10.60
2019-04-07T10:07:48.923Z,10.80
2019-04-07T10:10:20.021Z,10.28
2019-04-07T10:12:51.534Z,10.18
2019-04-07T10:15:22.671Z,9.78
2019-04-07T10:17:53.791Z,10.18
2019-04-07T10:20:25.854Z,9.70
2019-04-07T10:22:57.500Z,9.75
2019-04-07T10:25:29.286Z,10.25
2019-04-07T10:28:01.353Z,9.33
2019-04-07T10:30:32.606Z,10.03
2019-04-07T10:33:03.860Z,9.25
2019-04-07T10:35:36.008Z,9.68
2019-04-07T10:38:07.588Z,8.90
2019-04-07T10:40:38.974Z,9.10
2019-04-07T10:43:10.676Z,7.85
2019-04-07T10:45:41.914Z,8.35
2019-04-07T10:48:33.184Z,8.10
2019-04-07T10:51:04.561Z,9.18
2019-04-07T10:53:36.772Z,8.90
2019-04-07T10:56:27.674Z,8.70
2019-04-07T10:59:21.014Z,8.83
2019-04-07T11:01:52.051Z,8.50
2019-04-07T11:04:23.979Z,8.38
2019-04-07T11:07:17.424Z,8.53
2019-04-07T11:10:08.212Z,9.05
2019-04-07T11:12:39.622Z,8.58
2019-04-07T11:15:11.588Z,8.60
2019-04-07T11:17:43.562Z,8.60
2019-04-07T11:20:15.330Z,8.30
2019-04-07T11:22:46.420Z,8.00
2019-04-07T11:25:18.318Z,8.08
2019-04-07T11:27:50.378Z,7.85
2019-04-07T11:30:22.513Z,7.22
2019-04-07T11:33:12.956Z,9.08
2019-04-07T11:35:44.388Z,7.83
2019-04-07T11:38:15.535Z,8.60
2019-04-07T11:40:50.012Z,7.72
2019-04-07T11:43:19.567Z,7.80
2019-04-07T11:45:58.441Z,8.23
2019-04-07T11:48:24.111Z,7.60
2019-04-07T11:50:55.335Z,8.65
2019-04-07T11:53:27.446Z,8.40
2019-04-07T11:56:01.462Z,8.30
2019-04-07T11:58:33.708Z,7.92
2019-04-07T12:01:05.819Z,7.75
2019-04-07T12:03:37.538Z,7.30
2019-04-07T12:06:08.925Z,7.53
2019-04-07T12:08:40.512Z,8.05
2019-04-07T12:11:18.766Z,8.28
2019-04-07T12:13:49.979Z,8.68
2019-04-07T12:16:24.789Z,8.68
2019-04-07T12:19:01.527Z,8.63
2019-04-07T12:21:52.327Z,7.90
2019-04-07T12:24:26.511Z,8.53
2019-04-07T12:26:56.761Z,9.90
2019-04-07T12:29:47.268Z,9.50
2019-04-07T12:32:37.788Z,10.43
2019-04-07T12:35:15.600Z,10.70
2019-04-07T12:37:46.673Z,10.55
2019-04-07T12:40:20.837Z,9.28
2019-04-07T12:42:51.297Z,9.58
2019-04-07T12:45:22.451Z,8.83
2019-04-07T12:47:53.896Z,8.70
2019-04-07T12:50:25.290Z,10.03
2019-04-07T12:52:59.423Z,10.28
2019-04-07T12:55:30.485Z,9.83
2019-04-07T12:58:14.851Z,10.25
2019-04-07T13:00:57.979Z,10.30
2019-04-07T13:03:18.880Z,10.15
2019-04-07T13:05:50.909Z,9.58
2019-04-07T13:08:24.126Z,10.03
2019-04-07T13:10:55.796Z,8.65
2019-04-07T13:13:30.564Z,9.43
2019-04-07T13:16:00.357Z,9.35
2019-04-07T13:18:31.619Z,8.30
2019-04-07T13:21:03.315Z,9.75
2019-04-07T13:23:36.757Z,9.63
2019-04-07T13:26:07.882Z,9.23
2019-04-07T13:28:39.102Z,8.73
2019-04-07T13:31:11.289Z,8.83
2019-04-07T13:34:03.044Z,8.43
2019-04-07T13:36:35.040Z,8.98
2019-04-07T13:39:08.895Z,8.43
2019-04-07T13:42:00.223Z,8.40
2019-04-07T13:44:31.994Z,9.35
2019-04-07T13:47:06.264Z,9.25
2019-04-07T13:49:36.148Z,9.58
2019-04-07T13:52:07.498Z,8.88
2019-04-07T13:54:39.361Z,9.53
2019-04-07T13:57:12.089Z,8.53
2019-04-07T13:59:57.010Z,9.58
2019-04-07T14:02:30.282Z,9.43
2019-04-07T14:05:20.252Z,9.25
2019-04-07T14:07:54.465Z,12.25
2019-04-07T14:10:43.930Z,11.43
2019-04-07T14:13:24.558Z,11.05
2019-04-07T14:15:56.481Z,10.93
2019-04-07T14:18:52.340Z,10.32
2019-04-07T14:21:20.369Z,12.93
2019-04-07T14:23:54.527Z,13.38
2019-04-07T14:26:24.610Z,13.90
2019-04-07T14:28:56.505Z,13.30
2019-04-07T14:31:28.228Z,13.08
2019-04-07T14:34:00.970Z,14.15
2019-04-07T14:36:32.656Z,13.45
2019-04-07T14:42:01.017Z,11.10
2019-04-07T14:44:24.661Z,12.50
2019-04-07T14:46:57.601Z,12.25
2019-04-07T14:49:51.551Z,12.73
2019-04-07T14:52:21.490Z,11.25
2019-04-07T14:54:57.022Z,10.72
2019-04-07T14:57:25.558Z,11.33
2019-04-07T14:59:56.824Z,13.50
2019-04-07T15:02:26.368Z,13.05
2019-04-07T15:04:58.371Z,12.47
2019-04-07T15:07:29.964Z,12.00
2019-04-07T15:10:01.273Z,11.93
2019-04-07T15:12:32.384Z,10.20
2019-04-07T15:15:05.749Z,10.93
2019-04-07T15:17:35.809Z,10.20
2019-04-07T15:20:07.593Z,11.50
2019-04-07T15:22:37.849Z,11.38
2019-04-07T15:25:08.993Z,11.65
2019-04-07T15:27:40.033Z,10.48
2019-04-07T15:30:15.301Z,11.53
2019-04-07T15:32:43.825Z,11.60
2019-04-07T15:35:15.124Z,11.63
2019-04-07T15:37:45.159Z,10.30
2019-04-07T15:40:15.189Z,12.00
2019-04-07T15:42:50.034Z,11.48
2019-04-07T15:45:16.297Z,12.73
2019-04-07T15:47:47.191Z,13.15
2019-04-07T15:50:18.006Z,14.65
2019-04-07T15:53:07.265Z,12.60
2019-04-07T15:55:45.681Z,13.58
2019-04-07T15:58:08.543Z,13.65
2019-04-07T16:00:57.576Z,14.47
2019-04-07T16:03:27.723Z,13.60
2019-04-07T16:05:58.027Z,12.05
2019-04-07T16:08:29.526Z,13.08
2019-04-07T16:10:59.531Z,14.13
2019-04-07T16:13:31.661Z,13.13
2019-04-07T16:16:01.605Z,13.43
2019-04-07T16:18:31.949Z,12.82
2019-04-07T16:21:03.654Z,13.48
2019-04-07T16:23:54.179Z,12.55
2019-04-07T16:26:23.958Z,12.75
2019-04-07T16:28:54.047Z,16.30
2019-04-07T16:31:25.407Z,15.18
2019-04-07T16:33:55.094Z,15.30
2019-04-07T16:36:44.198Z,15.13
2019-04-07T16:39:13.894Z,16.12
2019-04-07T16:41:45.884Z,12.75
2019-04-07T16:44:14.656Z,11.15
2019-04-07T16:47:04.185Z,12.20
2019-04-07T16:49:34.005Z,13.03
2019-04-07T16:52:04.607Z,12.10
2019-04-07T16:54:34.693Z,12.03
2019-04-07T16:57:05.164Z,11.38
2019-04-07T16:59:34.927Z,11.08
2019-04-07T17:02:05.492Z,11.53
2019-04-07T17:04:35.201Z,11.55
2019-04-07T17:07:08.864Z,12.20
2019-04-07T17:09:36.675Z,10.98
2019-04-07T17:12:09.461Z,13.60
2019-04-07T17:14:38.086Z,15.00
2019-04-07T17:17:07.626Z,20.30
2019-04-07T17:19:38.403Z,20.20
2019-04-07T17:22:12.931Z,16.57
2019-04-07T17:24:41.006Z,16.85
2019-04-07T17:27:11.771Z,17.27
2019-04-07T17:29:41.644Z,19.57
2019-04-07T17:32:34.200Z,16.25
2019-04-07T17:35:02.174Z,14.18
2019-04-07T17:37:32.011Z,12.75
2019-04-07T17:40:03.449Z,16.73
2019-04-07T17:42:53.912Z,17.07
2019-04-07T17:45:25.272Z,18.42
2019-04-07T17:47:57.216Z,15.90
2019-04-07T17:50:31.226Z,15.43
2019-04-07T17:53:01.357Z,18.37
2019-04-07T17:55:33.137Z,20.30
2019-04-07T17:58:07.214Z,22.42
2019-04-07T18:00:37.426Z,15.90
2019-04-07T18:03:11.108Z,18.77
2019-04-07T18:05:47.429Z,16.55
2019-04-07T18:11:04.967Z,19.23
2019-04-07T18:13:46.068Z,19.42
2019-04-07T18:16:09.459Z,17.10
2019-04-07T18:18:41.750Z,17.82
2019-04-07T18:21:16.605Z,17.48
2019-04-07T18:23:46.052Z,18.00
2019-04-07T18:26:17.197Z,17.17
2019-04-07T18:29:08.030Z,23.18
2019-04-07T18:31:40.295Z,16.32
2019-04-07T18:34:11.949Z,16.42
2019-04-07T18:36:43.853Z,19.48
2019-04-07T18:39:17.548Z,17.37
2019-04-07T18:41:48.098Z,18.32
2019-04-07T18:44:19.204Z,15.95
2019-04-07T18:46:52.368Z,17.07
2019-04-07T18:49:23.899Z,13.75
2019-04-07T18:51:55.796Z,15.98
2019-04-07T18:54:30.721Z,17.10
2019-04-07T18:56:59.966Z,15.32
2019-04-07T18:59:33.384Z,17.62
2019-04-07T19:02:04.663Z,15.68
2019-04-07T19:04:48.891Z,14.63
2019-04-07T19:07:20.043Z,17.32
2019-04-07T19:09:52.957Z,17.60
2019-04-07T19:12:24.793Z,19.10
2019-04-07T19:15:02.426Z,14.95
2019-04-07T19:17:48.211Z,16.55
2019-04-07T19:20:19.452Z,16.67
2019-04-07T19:22:51.376Z,15.25
2019-04-07T19:25:23.390Z,16.17
2019-04-07T19:27:55.371Z,17.52
2019-04-07T19:30:48.626Z,16.60
2019-04-07T19:33:19.170Z,15.78
2019-04-07T19:35:50.504Z,15.48
2019-04-07T19:38:41.261Z,15.90
2019-04-07T19:41:13.248Z,15.58
2019-04-07T19:43:44.719Z,15.95
2019-04-07T19:46:16.339Z,15.95
2019-04-07T19:49:06.802Z,16.15
2019-04-07T19:51:47.273Z,16.10
2019-04-07T19:54:19.119Z,16.97
2019-04-07T19:56:50.688Z,15.80
2019-04-07T19:59:21.826Z,15.23
2019-04-07T20:01:52.997Z,13.45
2019-04-07T20:04:24.822Z,13.93
2019-04-07T20:06:59.312Z,13.98
2019-04-07T20:09:32.067Z,13.30
2019-04-07T20:12:04.937Z,11.78
2019-04-07T20:14:47.368Z,11.10
2019-04-07T20:17:09.149Z,9.75
2019-04-07T20:19:41.401Z,9.53
2019-04-07T20:22:17.549Z,9.03
2019-04-07T20:24:50.506Z,8.05
2019-04-07T20:27:24.849Z,7.33
2019-04-07T20:29:54.677Z,7.00
2019-04-07T20:32:26.243Z,6.85
2019-04-07T20:34:57.425Z,6.58
2019-04-07T20:37:28.750Z,5.70
2019-04-07T20:40:00.293Z,5.37
2019-04-07T20:42:32.780Z,5.30
2019-04-07T20:45:10.357Z,5.33
2019-04-07T20:47:36.798Z,4.65
2019-04-07T20:50:10.737Z,4.63
2019-04-07T20:52:42.577Z,4.45
2019-04-07T20:55:34.443Z,4.03
2019-04-07T20:58:16.230Z,4.05
2019-04-07T21:01:02.468Z,3.63
2019-04-07T21:03:31.809Z,3.70
2019-04-07T21:06:02.977Z,3.40
2019-04-07T21:08:34.521Z,3.20
2019-04-07T21:11:07.733Z,3.37
2019-04-07T21:13:39.495Z,3.52
2019-04-07T21:16:10.605Z,3.33
2019-04-07T21:18:42.300Z,3.30
2019-04-07T21:21:13.883Z,3.10
2019-04-07T21:23:46.178Z,3.55
2019-04-07T21:26:18.057Z,3.37
2019-04-07T21:28:49.179Z,3.10
2019-04-07T21:31:21.335Z,3.50
2019-04-07T21:33:55.270Z,3.40
2019-04-07T21:36:25.861Z,3.20
2019-04-07T21:38:56.986Z,3.50
2019-04-07T21:41:28.566Z,3.40
2019-04-07T21:43:59.728Z,3.40
2019-04-07T21:46:30.754Z,3.53
2019-04-07T21:49:02.726Z,3.00
2019-04-07T21:51:35.287Z,3.03
2019-04-07T21:54:06.440Z,3.70
2019-04-07T21:56:56.862Z,3.73
2019-04-07T21:59:31.098Z,3.60
2019-04-07T22:02:00.759Z,3.27
2019-04-07T22:04:34.865Z,3.40
2019-04-07T22:07:07.546Z,3.40
2019-04-07T22:12:14.711Z,3.37
2019-04-07T22:14:46.420Z,4.00
2019-04-07T22:17:17.043Z,2.90
2019-04-07T22:19:47.080Z,3.67
2019-04-07T22:22:17.613Z,3.77
2019-04-07T22:24:47.954Z,3.70
2019-04-07T22:27:22.633Z,3.60
2019-04-07T22:29:48.979Z,3.80
2019-04-07T22:32:22.137Z,3.63
2019-04-07T22:34:50.858Z,4.40
2019-04-07T22:37:23.583Z,3.60
2019-04-07T22:39:53.104Z,4.10
2019-04-07T22:42:22.621Z,3.90
2019-04-07T22:44:54.289Z,4.33
2019-04-07T22:47:23.650Z,4.60
2019-04-07T22:49:53.243Z,4.37
2019-04-07T22:52:22.741Z,4.47
2019-04-07T22:54:52.222Z,4.23
2019-04-07T22:57:21.933Z,4.90
2019-04-07T22:59:52.501Z,5.00
2019-04-07T23:02:22.234Z,4.93
2019-04-07T23:04:52.459Z,5.90
2019-04-07T23:07:22.009Z,7.07
2019-04-07T23:09:51.869Z,6.93
2019-04-07T23:12:21.363Z,7.60
2019-04-07T23:14:51.196Z,7.77
2019-04-07T23:17:20.935Z,8.27
2019-04-07T23:19:50.491Z,8.50
2019-04-07T23:22:20.157Z,9.03
2019-04-07T23:24:49.653Z,8.77
2019-04-07T23:27:38.453Z,8.90
2019-04-07T23:30:11.042Z,9.57
2019-04-07T23:32:41.507Z,10.83
2019-04-07T23:35:30.879Z,9.87
2019-04-07T23:38:02.001Z,9.87
2019-04-07T23:40:32.216Z,10.33
2019-04-07T23:43:02.614Z,11.80
2019-04-07T23:45:32.361Z,10.70
2019-04-07T23:48:02.048Z,11.37
2019-04-07T23:50:31.619Z,12.47
2019-04-07T23:53:06.534Z,12.50
2019-04-07T23:55:36.245Z,11.93
2019-04-07T23:58:05.759Z,13.10
